createdAt,value
2022-11-03T00:01:57.973Z,101256.13
2022-11-03T00:04:24.407Z,101251.63
2022-11-03T00:06:51.852Z,101243.34
2022-11-03T00:09:19.297Z,101245.16
2022-11-03T00:11:46.787Z,101247.91
2022-11-03T00:14:14.455Z,101238.41
2022-11-03T00:16:40.981Z,101244.56
2022-11-03T00:19:08.484Z,101239.09
2022-11-03T00:21:34.848Z,101239.22
2022-11-03T00:24:01.550Z,101243.88
2022-11-03T00:26:28.580Z,101236.72
2022-11-03T00:28:55.478Z,101234.22
2022-11-03T00:31:23.847Z,101230.56
2022-11-03T00:33:50.629Z,101228.72
2022-11-03T00:36:17.923Z,101226.06
2022-11-03T00:38:44.623Z,101221.44
2022-11-03T00:41:11.498Z,101207.88
2022-11-03T00:43:38.353Z,101207.06
2022-11-03T00:46:05.535Z,101205.56
2022-11-03T00:48:33.667Z,101210.19
2022-11-03T00:51:00.492Z,101208.53
2022-11-03T00:53:26.781Z,101206.00
2022-11-03T00:55:53.085Z,101196.78
2022-11-03T00:58:19.377Z,101198.78
2022-11-03T01:00:45.683Z,101191.78
2022-11-03T01:03:12.033Z,101183.13
2022-11-03T01:05:41.285Z,101184.78
2022-11-03T01:08:07.630Z,101181.13
2022-11-03T01:10:35.919Z,101179.47
2022-11-03T01:13:02.191Z,101169.13
2022-11-03T01:15:28.466Z,101169.81
2022-11-03T01:17:54.759Z,101167.97
2022-11-03T01:20:21.047Z,101165.31
2022-11-03T01:22:48.654Z,101170.50
2022-11-03T01:25:15.056Z,101160.53
2022-11-03T01:27:41.353Z,101157.88
2022-11-03T01:30:08.012Z,101153.34
2022-11-03T01:32:34.284Z,101144.38
2022-11-03T01:35:00.575Z,101148.88
2022-11-03T01:37:26.893Z,101138.56
2022-11-03T01:39:54.655Z,101146.38
2022-11-03T01:42:20.963Z,101135.91
2022-11-03T01:44:48.216Z,101128.75
2022-11-03T01:47:17.966Z,101122.44
2022-11-03T01:49:46.436Z,101130.25
2022-11-03T01:52:15.295Z,101119.59
2022-11-03T01:54:44.285Z,101117.13
2022-11-03T01:57:19.444Z,101111.63
2022-11-03T01:59:47.696Z,101110.34
2022-11-03T02:02:14.177Z,101101.81
2022-11-03T02:04:41.450Z,101101.81
2022-11-03T02:07:13.369Z,101087.66
2022-11-03T02:09:39.660Z,101086.81
2022-11-03T02:12:07.397Z,101087.34
2022-11-03T02:14:35.994Z,101081.34
2022-11-03T02:17:05.298Z,101078.03
2022-11-03T02:19:32.856Z,101072.38
2022-11-03T02:22:02.934Z,101079.38
2022-11-03T02:24:36.163Z,101079.38
2022-11-03T02:27:03.954Z,101073.38
2022-11-03T02:29:30.302Z,101072.25
2022-11-03T02:31:58.278Z,101068.16
2022-11-03T02:34:28.876Z,101076.13
2022-11-03T02:36:57.886Z,101074.13
2022-11-03T02:39:26.675Z,101061.50
2022-11-03T02:41:54.850Z,101064.69
2022-11-03T02:44:22.769Z,101054.03
2022-11-03T02:46:51.923Z,101050.38
2022-11-03T02:49:18.225Z,101043.22
2022-11-03T02:51:44.507Z,101035.91
2022-11-03T02:54:14.639Z,101034.09
2022-11-03T02:56:45.595Z,101021.97
2022-11-03T02:59:13.403Z,101027.81
2022-11-03T03:01:42.922Z,101030.47
2022-11-03T03:04:09.876Z,101021.81
2022-11-03T03:06:39.515Z,101020.28
2022-11-03T03:09:07.685Z,101019.59
2022-11-03T03:11:34.374Z,101003.78
2022-11-03T03:14:00.665Z,101000.31
2022-11-03T03:16:30.478Z,101007.47
2022-11-03T03:19:00.778Z,101006.78
2022-11-03T03:21:31.221Z,101000.31
2022-11-03T03:23:59.000Z,101003.59
2022-11-03T03:26:28.046Z,100994.94
2022-11-03T03:28:57.151Z,100999.44
2022-11-03T03:31:24.948Z,100993.63
2022-11-03T03:33:59.755Z,100982.28
2022-11-03T03:36:33.818Z,100989.44
2022-11-03T03:39:02.116Z,100988.75
2022-11-03T03:41:29.066Z,100984.28
2022-11-03T03:43:57.473Z,100974.63
2022-11-03T03:46:27.206Z,100974.63
2022-11-03T03:48:53.512Z,100965.94
2022-11-03T03:51:22.681Z,100962.97
2022-11-03T03:53:51.288Z,100963.41
2022-11-03T03:56:18.570Z,100954.78
2022-11-03T03:58:44.871Z,100963.59
2022-11-03T04:01:11.948Z,100961.41
2022-11-03T04:03:38.282Z,100957.25
2022-11-03T04:06:04.724Z,100961.88
2022-11-03T04:08:30.995Z,100951.09
2022-11-03T04:10:58.616Z,100953.25
2022-11-03T04:13:24.924Z,100951.56
2022-11-03T04:15:51.254Z,100940.25
2022-11-03T04:18:17.907Z,100949.06
2022-11-03T04:20:44.183Z,100940.41
2022-11-03T04:23:10.483Z,100940.41
2022-11-03T04:25:36.873Z,100941.56
2022-11-03T04:28:08.611Z,100940.72
2022-11-03T04:30:35.203Z,100931.22
2022-11-03T04:33:01.473Z,100933.72
2022-11-03T04:35:27.943Z,100928.56
2022-11-03T04:37:54.947Z,100912.59
2022-11-03T04:40:21.335Z,100909.94
2022-11-03T04:42:47.610Z,100907.97
2022-11-03T04:45:22.142Z,100898.69
2022-11-03T04:47:48.703Z,100901.50
2022-11-03T04:50:17.156Z,100900.50
2022-11-03T04:52:43.515Z,100911.00
2022-11-03T04:55:13.895Z,100902.84
2022-11-03T04:57:40.329Z,100893.03
2022-11-03T05:00:07.355Z,100880.75
2022-11-03T05:02:35.004Z,100885.22
2022-11-03T05:05:05.012Z,100887.19
2022-11-03T05:07:33.079Z,100877.56
2022-11-03T05:09:59.453Z,100882.03
2022-11-03T05:12:26.162Z,100872.38
2022-11-03T05:14:57.903Z,100869.06
2022-11-03T05:17:26.173Z,100863.72
2022-11-03T05:19:55.916Z,100867.38
2022-11-03T05:22:22.518Z,100860.59
2022-11-03T05:24:50.783Z,100850.28
2022-11-03T05:27:20.267Z,100854.28
2022-11-03T05:29:47.211Z,100842.13
2022-11-03T05:32:16.461Z,100838.47
2022-11-03T05:34:43.760Z,100846.31
2022-11-03T05:37:25.895Z,100831.19
2022-11-03T05:39:53.879Z,100827.84
2022-11-03T05:42:25.018Z,100822.88
2022-11-03T05:44:51.720Z,100812.41
2022-11-03T05:47:20.596Z,100810.72
2022-11-03T05:49:47.318Z,100810.72
2022-11-03T05:52:17.640Z,100810.72
2022-11-03T05:54:44.030Z,100806.25
2022-11-03T05:57:10.604Z,100810.56
2022-11-03T05:59:37.160Z,100790.28
2022-11-03T06:02:05.250Z,100795.91
2022-11-03T06:04:32.800Z,100796.25
2022-11-03T06:07:01.819Z,100795.56
2022-11-03T06:09:31.805Z,100794.72
2022-11-03T06:12:01.181Z,100791.41
2022-11-03T06:14:29.814Z,100789.91
2022-11-03T06:16:57.803Z,100778.44
2022-11-03T06:19:26.209Z,100781.41
2022-11-03T06:21:53.547Z,100771.28
2022-11-03T06:24:21.600Z,100775.78
2022-11-03T06:26:49.537Z,100762.63
2022-11-03T06:29:16.299Z,100761.97
2022-11-03T06:31:44.158Z,100758.63
2022-11-03T06:34:18.499Z,100755.13
2022-11-03T06:36:44.803Z,100745.63
2022-11-03T06:39:17.787Z,100748.50
2022-11-03T06:41:44.084Z,100748.81
2022-11-03T06:44:19.999Z,100740.38
2022-11-03T06:46:46.282Z,100744.19
2022-11-03T06:49:24.992Z,100741.38
2022-11-03T06:51:51.288Z,100746.03
2022-11-03T06:54:17.683Z,100744.53
2022-11-03T06:56:43.961Z,100743.53
2022-11-03T06:59:13.493Z,100741.72
2022-11-03T07:01:41.563Z,100735.09
2022-11-03T07:04:12.966Z,100735.56
2022-11-03T07:06:39.336Z,100730.63
2022-11-03T07:09:07.033Z,100731.13
2022-11-03T07:11:35.407Z,100734.47
2022-11-03T07:14:09.233Z,100736.28
2022-11-03T07:16:37.221Z,100733.78
2022-11-03T07:19:06.280Z,100725.78
2022-11-03T07:21:34.581Z,100729.59
2022-11-03T07:24:01.925Z,100730.09
2022-11-03T07:26:28.319Z,100731.44
2022-11-03T07:28:55.037Z,100729.44
2022-11-03T07:31:23.513Z,100729.44
2022-11-03T07:33:50.835Z,100721.47
2022-11-03T07:36:20.186Z,100710.97
2022-11-03T07:38:47.875Z,100719.13
2022-11-03T07:41:18.094Z,100710.97
2022-11-03T07:43:46.675Z,100699.47
2022-11-03T07:46:17.011Z,100687.66
2022-11-03T07:48:45.335Z,100691.81
2022-11-03T07:51:16.048Z,100693.47
2022-11-03T07:53:44.788Z,100702.78
2022-11-03T07:56:15.752Z,100701.78
2022-11-03T07:58:42.284Z,100697.97
2022-11-03T08:01:18.695Z,100704.09
2022-11-03T08:03:47.204Z,100707.41
2022-11-03T08:06:14.672Z,100703.75
2022-11-03T08:08:44.896Z,100698.06
2022-11-03T08:11:11.269Z,100695.41
2022-11-03T08:13:37.603Z,100701.41
2022-11-03T08:16:04.109Z,100694.06
2022-11-03T08:18:30.376Z,100681.09
2022-11-03T08:20:56.667Z,100681.38
2022-11-03T08:23:26.605Z,100671.22
2022-11-03T08:25:54.516Z,100661.22
2022-11-03T08:28:20.809Z,100654.34
2022-11-03T08:30:47.165Z,100656.00
2022-11-03T08:33:13.465Z,100647.50
2022-11-03T08:35:39.726Z,100632.97
2022-11-03T08:38:06.166Z,100632.81
2022-11-03T08:40:32.729Z,100623.13
2022-11-03T08:43:00.341Z,100623.97
2022-11-03T08:45:26.627Z,100622.13
2022-11-03T08:47:53.039Z,100615.41
2022-11-03T08:50:19.325Z,100602.75
2022-11-03T08:52:45.646Z,100597.53
2022-11-03T08:55:11.966Z,100577.50
2022-11-03T08:57:38.263Z,100576.16
2022-11-03T09:00:06.852Z,100565.78
2022-11-03T09:02:33.209Z,100560.88
2022-11-03T09:04:59.871Z,100559.03
2022-11-03T09:10:22.020Z,100542.69
2022-11-03T09:12:49.804Z,100540.75
2022-11-03T09:15:17.429Z,100544.09
2022-11-03T09:17:45.644Z,100531.41
2022-11-03T09:20:12.523Z,100526.50
2022-11-03T09:22:39.150Z,100516.66
2022-11-03T09:25:06.102Z,100503.63
2022-11-03T09:27:32.493Z,100497.28
2022-11-03T09:30:12.955Z,100484.13
2022-11-03T09:32:41.415Z,100470.25
2022-11-03T09:35:08.289Z,100480.53
2022-11-03T09:37:34.601Z,100470.03
2022-11-03T09:40:00.866Z,100462.31
2022-11-03T09:42:27.159Z,100461.50
2022-11-03T09:44:54.447Z,100455.97
2022-11-03T09:47:23.232Z,100466.47
2022-11-03T09:49:51.127Z,100451.91
2022-11-03T09:52:19.930Z,100451.53
2022-11-03T09:54:46.313Z,100442.53
2022-11-03T09:57:13.487Z,100442.53
2022-11-03T09:59:40.334Z,100436.72
2022-11-03T10:02:15.633Z,100427.06
2022-11-03T10:04:41.976Z,100421.16
2022-11-03T10:07:09.712Z,100425.69
2022-11-03T10:09:36.094Z,100414.16
2022-11-03T10:12:02.361Z,100418.50
2022-11-03T10:14:28.796Z,100421.44
2022-11-03T10:16:57.057Z,100411.59
2022-11-03T10:19:23.893Z,100410.56
2022-11-03T10:21:50.989Z,100408.09
2022-11-03T10:24:18.833Z,100391.69
2022-11-03T10:26:46.081Z,100394.19
2022-11-03T10:29:17.385Z,100390.69
2022-11-03T10:31:43.697Z,100378.34
2022-11-03T10:34:23.186Z,100374.59
2022-11-03T10:36:50.747Z,100363.56
2022-11-03T10:39:24.788Z,100362.09
2022-11-03T10:41:55.281Z,100364.38
2022-11-03T10:44:21.575Z,100343.66
2022-11-03T10:46:55.904Z,100347.59
2022-11-03T10:49:22.520Z,100343.09
2022-11-03T10:51:50.008Z,100336.38
2022-11-03T10:54:17.599Z,100335.78
2022-11-03T10:56:45.910Z,100337.25
2022-11-03T10:59:16.261Z,100331.59
2022-11-03T11:01:42.733Z,100328.16
2022-11-03T11:04:10.301Z,100330.44
2022-11-03T11:06:36.631Z,100325.13
2022-11-03T11:09:03.955Z,100323.47
2022-11-03T11:11:30.488Z,100320.41
2022-11-03T11:14:11.671Z,100314.69
2022-11-03T11:16:49.358Z,100315.84
2022-11-03T11:19:15.684Z,100309.47
2022-11-03T11:22:05.658Z,100308.31
2022-11-03T11:24:50.442Z,100316.03
2022-11-03T11:27:37.452Z,100291.78
2022-11-03T11:30:04.867Z,100292.84
2022-11-03T11:32:49.190Z,100293.28
2022-11-03T11:35:40.502Z,100300.75
2022-11-03T11:38:25.314Z,100278.34
2022-11-03T11:40:51.608Z,100264.34
2022-11-03T11:43:27.023Z,100251.38
2022-11-03T11:46:08.201Z,100232.91
2022-11-03T11:48:34.714Z,100225.66
2022-11-03T11:51:03.708Z,100222.16
2022-11-03T11:53:32.312Z,100214.38
2022-11-03T11:55:59.600Z,100213.31
2022-11-03T11:58:29.317Z,100202.22
2022-11-03T12:01:00.137Z,100209.41
2022-11-03T12:03:28.443Z,100197.69
2022-11-03T12:05:54.747Z,100186.81
2022-11-03T12:08:25.888Z,100176.53
2022-11-03T12:10:53.079Z,100169.97
2022-11-03T12:13:34.301Z,100174.09
2022-11-03T12:16:00.591Z,100173.72
2022-11-03T12:18:32.888Z,100165.88
2022-11-03T12:21:03.835Z,100160.94
2022-11-03T12:23:38.691Z,100150.06
2022-11-03T12:26:05.428Z,100141.44
2022-11-03T12:28:32.491Z,100140.56
2022-11-03T12:33:30.192Z,100126.00
2022-11-03T12:35:56.926Z,100115.09
2022-11-03T12:38:23.252Z,100109.75
2022-11-03T12:40:51.192Z,100108.34
2022-11-03T12:43:17.463Z,100100.31
2022-11-03T12:45:43.781Z,100088.59
2022-11-03T12:48:10.068Z,100082.63
2022-11-03T12:50:36.388Z,100082.44
2022-11-03T12:53:02.683Z,100076.25
2022-11-03T12:55:28.974Z,100068.03
2022-11-03T12:57:56.617Z,100068.03
2022-11-03T13:00:22.892Z,100060.41
2022-11-03T13:02:49.326Z,100047.06
2022-11-03T13:05:15.830Z,100040.06
2022-11-03T13:07:42.378Z,100030.19
2022-11-03T13:10:09.241Z,100029.34
2022-11-03T13:12:35.559Z,100017.00
2022-11-03T13:15:04.391Z,100016.19
2022-11-03T13:17:35.952Z,100009.81
2022-11-03T13:20:17.067Z,100004.25
2022-11-03T13:22:43.357Z,99996.44
2022-11-03T13:25:09.679Z,99992.97
2022-11-03T13:27:35.955Z,99995.41
2022-11-03T13:30:03.750Z,99992.72
2022-11-03T13:32:30.073Z,99977.50
2022-11-03T13:34:56.403Z,99977.50
2022-11-03T13:37:22.683Z,99979.56
2022-11-03T13:39:48.967Z,99970.09
2022-11-03T13:42:15.259Z,99970.28
2022-11-03T13:44:41.536Z,99954.44
2022-11-03T13:47:11.700Z,99955.66
2022-11-03T13:50:12.611Z,99959.16
2022-11-03T13:52:24.712Z,99967.78
2022-11-03T14:00:24.016Z,99990.72
2022-11-03T14:05:37.964Z,99975.63
2022-11-03T14:08:04.626Z,99961.00
2022-11-03T14:10:31.037Z,99967.75
2022-11-03T14:12:57.323Z,99964.25
2022-11-03T14:15:23.606Z,99961.97
2022-11-03T14:17:49.869Z,99958.44
2022-11-03T14:20:17.678Z,99962.13
2022-11-03T14:22:44.037Z,99966.19
2022-11-03T14:25:10.324Z,99954.69
2022-11-03T14:27:36.708Z,99949.13
2022-11-03T14:30:03.382Z,99943.53
2022-11-03T14:32:29.685Z,99941.25
2022-11-03T14:34:56.063Z,99937.94
2022-11-03T14:37:24.230Z,99931.19
2022-11-03T14:39:50.544Z,99925.41
2022-11-03T14:42:16.855Z,99917.78
2022-11-03T14:44:45.752Z,99911.22
2022-11-03T14:47:13.188Z,99908.31
2022-11-03T14:49:39.493Z,99908.91
2022-11-03T14:52:06.648Z,99913.13
2022-11-03T14:54:34.675Z,99918.28
2022-11-03T14:57:00.964Z,99913.13
2022-11-03T14:59:27.571Z,99911.66
2022-11-03T15:01:54.225Z,99892.38
2022-11-03T15:04:20.646Z,99890.13
2022-11-03T15:06:47.018Z,99880.66
2022-11-03T15:09:13.453Z,99867.91
2022-11-03T15:11:41.300Z,99864.81
2022-11-03T15:14:07.967Z,99868.69
2022-11-03T15:16:34.259Z,99862.91
2022-11-03T15:19:00.557Z,99862.09
2022-11-03T15:21:27.651Z,99858.59
2022-11-03T15:26:41.502Z,99839.13
2022-11-03T15:29:07.784Z,99835.03
2022-11-03T15:31:34.060Z,99827.22
2022-11-03T15:34:03.020Z,99816.94
2022-11-03T15:36:32.412Z,99812.81
2022-11-03T15:38:58.709Z,99818.16
2022-11-03T15:41:24.993Z,99804.34
2022-11-03T15:43:52.631Z,99799.09
2022-11-03T15:46:20.206Z,99786.97
2022-11-03T15:48:46.766Z,99783.28
2022-11-03T15:51:13.188Z,99783.09
2022-11-03T15:53:39.729Z,99775.09
2022-11-03T15:56:06.459Z,99758.06
2022-11-03T15:58:32.746Z,99762.19
2022-11-03T16:01:00.537Z,99762.81
2022-11-03T16:03:26.986Z,99751.53
2022-11-03T16:05:53.414Z,99762.00
2022-11-03T16:08:19.698Z,99750.53
2022-11-03T16:10:50.692Z,99739.28
2022-11-03T16:13:21.061Z,99741.31
2022-11-03T16:15:47.365Z,99740.94
2022-11-03T16:18:15.008Z,99741.97
2022-11-03T16:20:41.319Z,99736.63
2022-11-03T16:23:07.612Z,99740.31
2022-11-03T16:25:33.918Z,99739.09
2022-11-03T16:28:00.203Z,99736.63
2022-11-03T16:30:26.492Z,99738.84
2022-11-03T16:32:52.792Z,99742.13
2022-11-03T16:35:20.764Z,99739.22
2022-11-03T16:37:47.060Z,99738.22
2022-11-03T16:40:17.951Z,99743.13
2022-11-03T16:42:45.584Z,99733.50
2022-11-03T16:45:15.041Z,99732.47
2022-11-03T16:47:41.305Z,99726.06
2022-11-03T16:50:07.993Z,99724.63
2022-11-03T16:52:35.642Z,99727.09
2022-11-03T16:55:01.954Z,99718.66
2022-11-03T16:57:28.252Z,99720.91
2022-11-03T16:59:54.558Z,99714.75
2022-11-03T17:02:20.883Z,99716.78
2022-11-03T17:04:47.237Z,99709.00
2022-11-03T17:07:13.573Z,99711.22
2022-11-03T17:09:41.232Z,99712.66
2022-11-03T17:12:07.642Z,99716.31
2022-11-03T17:14:33.941Z,99712.84
2022-11-03T17:17:00.233Z,99710.56
2022-11-03T17:19:26.541Z,99708.31
2022-11-03T17:21:52.900Z,99705.84
2022-11-03T17:24:19.175Z,99697.03
2022-11-03T17:26:49.812Z,99694.16
2022-11-03T17:29:17.244Z,99690.44
2022-11-03T17:31:43.596Z,99685.28
2022-11-03T17:34:11.163Z,99676.06
2022-11-03T17:36:37.564Z,99677.47
2022-11-03T17:39:04.334Z,99675.00
2022-11-03T17:41:30.661Z,99679.31
2022-11-03T17:43:58.262Z,99683.81
2022-11-03T17:46:24.555Z,99672.78
2022-11-03T17:48:50.857Z,99666.00
2022-11-03T17:51:17.161Z,99670.94
2022-11-03T17:53:43.471Z,99676.63
2022-11-03T17:56:29.434Z,99675.19
2022-11-03T17:58:57.654Z,99671.88
2022-11-03T18:01:25.628Z,99674.34
2022-11-03T18:03:52.113Z,99666.38
2022-11-03T18:06:19.540Z,99664.53
2022-11-03T18:08:46.213Z,99667.38
2022-11-03T18:11:13.648Z,99672.53
2022-11-03T18:13:40.088Z,99672.72
2022-11-03T18:16:10.150Z,99677.66
2022-11-03T18:18:37.572Z,99672.31
2022-11-03T18:21:04.335Z,99682.97
2022-11-03T18:23:31.610Z,99681.97
2022-11-03T18:25:58.426Z,99685.25
2022-11-03T18:28:24.725Z,99682.78
2022-11-03T18:30:52.599Z,99683.59
2022-11-03T18:33:22.103Z,99679.34
2022-11-03T18:35:48.549Z,99686.13
2022-11-03T18:38:15.497Z,99672.81
2022-11-03T18:40:42.803Z,99678.13
2022-11-03T18:43:13.283Z,99677.31
2022-11-03T18:45:39.631Z,99668.31
2022-11-03T18:48:06.016Z,99674.25
2022-11-03T18:50:33.915Z,99667.28
2022-11-03T18:53:00.391Z,99672.41
2022-11-03T18:55:26.713Z,99670.97
2022-11-03T18:57:53.144Z,99669.94
2022-11-03T19:00:20.960Z,99669.13
2022-11-03T19:02:47.509Z,99673.00
2022-11-03T19:05:14.101Z,99669.09
2022-11-03T19:07:42.533Z,99664.78
2022-11-03T19:10:10.630Z,99654.31
2022-11-03T19:12:39.287Z,99644.06
2022-11-03T19:15:06.442Z,99640.97
2022-11-03T19:17:34.104Z,99625.22
2022-11-03T19:20:00.423Z,99627.88
2022-11-03T19:22:26.697Z,99632.38
2022-11-03T19:24:54.370Z,99644.84
2022-11-03T19:27:22.640Z,99652.19
2022-11-03T19:29:52.085Z,99649.34
2022-11-03T19:32:20.639Z,99638.06
2022-11-03T19:34:49.217Z,99649.72
2022-11-03T19:37:15.523Z,99659.56
2022-11-03T19:39:41.803Z,99660.00
2022-11-03T19:42:12.585Z,99650.00
2022-11-03T19:44:38.865Z,99637.25
2022-11-03T19:47:05.155Z,99641.94
2022-11-03T19:49:31.468Z,99645.44
2022-11-03T19:51:58.016Z,99647.25
2022-11-03T19:54:24.325Z,99639.72
2022-11-03T19:56:50.633Z,99630.47
2022-11-03T19:59:19.932Z,99620.69
2022-11-03T20:01:46.418Z,99616.41
2022-11-03T20:04:12.813Z,99618.63
2022-11-03T20:06:39.218Z,99606.69
2022-11-03T20:09:05.721Z,99610.19
2022-11-03T20:11:32.691Z,99609.81
2022-11-03T20:14:01.201Z,99618.81
2022-11-03T20:16:29.643Z,99622.09
2022-11-03T20:18:58.778Z,99632.56
2022-11-03T20:21:27.868Z,99634.59
2022-11-03T20:23:59.330Z,99623.13
2022-11-03T20:26:25.956Z,99615.94
2022-11-03T20:28:53.673Z,99616.97
2022-11-03T20:31:19.989Z,99630.47
2022-11-03T20:33:49.543Z,99617.16
2022-11-03T20:36:17.031Z,99613.09
2022-11-03T20:38:50.732Z,99619.06
2022-11-03T20:41:17.112Z,99629.06
2022-11-03T20:43:44.352Z,99624.56
2022-11-03T20:46:18.943Z,99623.56
2022-11-03T20:48:45.234Z,99634.41
2022-11-03T20:51:13.834Z,99638.91
2022-11-03T20:53:40.189Z,99641.13
2022-11-03T20:56:08.673Z,99641.56
2022-11-03T20:58:34.967Z,99643.59
2022-11-03T21:01:01.350Z,99652.19
2022-11-03T21:03:58.868Z,99652.59
2022-11-03T21:06:19.202Z,99652.19
2022-11-03T21:08:46.410Z,99655.88
2022-11-03T21:11:15.025Z,99661.19
2022-11-03T21:13:41.321Z,99658.72
2022-11-03T21:16:23.607Z,99663.47
2022-11-03T21:18:50.988Z,99686.25
2022-11-03T21:21:21.186Z,99687.44
2022-11-03T21:23:47.735Z,99687.19
2022-11-03T21:26:14.097Z,99687.56
2022-11-03T21:28:40.404Z,99701.28
2022-11-03T21:31:11.088Z,99715.34
2022-11-03T21:33:37.383Z,99718.25
2022-11-03T21:36:03.858Z,99727.00
2022-11-03T21:38:31.490Z,99722.84
2022-11-03T21:40:57.789Z,99726.28
2022-11-03T21:43:24.086Z,99723.44
2022-11-03T21:45:50.382Z,99728.78
2022-11-03T21:48:17.098Z,99733.22
2022-11-03T21:50:44.020Z,99729.72
2022-11-03T21:53:11.118Z,99739.91
2022-11-03T21:55:39.258Z,99740.09
2022-11-03T21:58:05.540Z,99743.75
2022-11-03T22:00:32.105Z,99738.22
2022-11-03T22:02:58.641Z,99746.00
2022-11-03T22:05:24.934Z,99739.13
2022-11-03T22:07:51.232Z,99728.44
2022-11-03T22:10:17.598Z,99746.75
2022-11-03T22:12:45.206Z,99754.31
2022-11-03T22:15:11.514Z,99752.84
2022-11-03T22:17:37.807Z,99761.38
2022-11-03T22:20:04.524Z,99772.00
2022-11-03T22:22:30.814Z,99771.56
2022-11-03T22:24:57.482Z,99767.25
2022-11-03T22:27:24.198Z,99776.69
2022-11-03T22:29:51.821Z,99791.25
2022-11-03T22:32:18.099Z,99809.41
2022-11-03T22:34:44.398Z,99811.50
2022-11-03T22:37:10.700Z,99819.41
2022-11-03T22:39:36.997Z,99830.88
2022-11-03T22:42:06.381Z,99834.06
2022-11-03T22:44:33.273Z,99834.25
2022-11-03T22:47:02.922Z,99840.19
2022-11-03T22:49:29.544Z,99841.56
2022-11-03T22:51:55.854Z,99837.66
2022-11-03T22:54:22.144Z,99832.69
2022-11-03T22:56:48.426Z,99838.47
2022-11-03T22:59:14.697Z,99838.66
2022-11-03T23:01:41.149Z,99827.09
2022-11-03T23:04:08.891Z,99837.19
2022-11-03T23:06:36.559Z,99840.75
2022-11-03T23:09:03.406Z,99827.09
2022-11-03T23:11:30.614Z,99836.44
2022-11-03T23:13:58.217Z,99838.63
2022-11-03T23:16:25.610Z,99839.81
2022-11-03T23:18:52.212Z,99839.38
2022-11-03T23:21:19.853Z,99854.84
2022-11-03T23:23:46.145Z,99863.72
2022-11-03T23:26:12.517Z,99856.88
2022-11-03T23:28:38.832Z,99872.81
2022-11-03T23:31:05.261Z,99873.00
2022-11-03T23:33:31.813Z,99879.31
2022-11-03T23:36:02.117Z,99877.00
2022-11-03T23:38:30.670Z,99885.19
2022-11-03T23:41:00.175Z,99890.03
2022-11-03T23:43:26.443Z,99896.81
2022-11-03T23:45:52.736Z,99892.94
2022-11-03T23:48:19.035Z,99896.63
2022-11-03T23:50:45.353Z,99900.66
2022-11-03T23:53:11.631Z,99898.00
2022-11-03T23:55:39.281Z,99897.44
2022-11-03T23:58:05.849Z,99907.97
